K3ZED-2 Weather Reports


time (UTC)temp
F
wind
direction
speed
knots
gust
knots
rain 1hr
in
rain 24hr
in
rain mn
in
humidity
%
barometer
mb
20220124101651 26 326 0.0 2.6 0.00 0.00 0.00 82 1010.7
20220124100134 26 339 0.0 2.6 0.00 0.00 0.00 82 1010.6
20220124094621 26 336 0.0 1.7 0.00 0.00 0.00 82 1010.5
20220124093205 26 317 0.0 2.6 0.00 0.00 0.00 82 1010.5
20220124091555 26 308 0.0 0.0 0.00 0.00 0.00 84 1010.2
20220124090140 26 290 0.0 0.0 0.00 0.00 0.00 83 1010.4
20220124084634 26 290 0.0 0.9 0.00 0.00 0.00 81 1010.1
20220124083110 26 314 0.0 0.9 0.00 0.00 0.00 81 1009.6
20220124081608 27 322 0.0 1.7 0.00 0.00 0.00 80 1009.5
20220124080054 28 322 0.0 0.0 0.00 0.00 0.00 80 1009.2
20220124074640 28 326 0.0 5.2 0.00 0.00 0.00 81 1009.2
20220124073049 27 303 0.0 0.0 0.00 0.00 0.00 81 1009.2
20220124071600 27 291 0.0 0.0 0.00 0.00 0.00 80 1009.1
20220124070104 28 286 0.0 0.0 0.00 0.00 0.00 79 1008.9
20220124064614 29 294 0.0 0.0 0.00 0.00 0.00 79 1008.8
20220124063048 28 296 0.0 0.0 0.00 0.00 0.00 79 1008.8
20220124061529 28 294 0.0 0.0 0.00 0.00 0.00 79 1008.6
20220124060111 29 291 0.0 2.6 0.00 0.00 0.00 79 1008.6
20220124054604 29 302 0.0 0.0 0.00 0.00 0.00 78 1008.6
20220124053039 29 309 0.0 0.0 0.00 0.00 0.00 78 1008.6
20220124051522 30 340 0.0 3.5 0.00 0.00 0.00 78 1008.5
20220124050032 30 326 0.0 0.0 0.00 0.00 0.00 78 1008.5
20220124044542 29 262 0.0 0.0 0.00 0.00 0.00 78 1008.4
20220124043023 30 250 0.0 0.0 0.00 0.00 0.00 77 1008.4
20220124041519 30 249 0.0 1.7 0.00 0.00 0.00 76 1008.3
20220124040028 31 251 0.0 0.0 0.00 0.00 0.00 75 1008.2
20220124034518 31 240 0.0 0.0 0.00 0.00 0.00 75 1008.2
20220124033032 31 239 0.0 0.0 0.00 0.00 0.00 74 1008.3
20220124031525 30 242 0.0 0.0 0.00 0.00 0.00 74 1008.3
20220124030117 30 239 0.0 0.0 0.00 0.00 0.00 73 1008.3
20220124024519 29 237 0.0 2.6 0.00 0.00 0.00 74 1008.4
20220124023016 29 223 0.0 0.0 0.00 0.00 0.00 76 1008.4
20220124021514 28 216 0.0 0.0 0.00 0.00 0.00 78 1008.5
20220124020051 27 213 0.0 0.0 0.00 0.00 0.00 78 1008.5
20220124014514 28 213 0.0 0.0 0.00 0.00 0.00 77 1008.4
20220124013013 28 213 0.0 0.0 0.00 0.00 0.00 75 1008.3
20220124011536 29 213 0.0 0.0 0.00 0.00 0.00 72 1008.2
20220124010013 30 213 0.0 0.0 0.00 0.00 0.00 70 1008.3
20220124004521 30 213 0.0 0.0 0.00 0.00 0.00 70 1008.2
20220124003013 31 213 0.0 0.0 0.00 0.00 0.00 70 1008.4
20220124001520 31 213 0.0 0.0 0.00 0.00 0.00 69 1008.3
20220124000035 31 213 0.0 0.0 0.00 0.00 0.00 68 1008.3
20220123234547 32 213 0.0 0.0 0.00 0.00 0.00 67 1008.2
20220123233009 32 213 0.0 1.7 0.00 0.00 0.00 67 1008.1
20220123231524 32 210 0.0 1.7 0.00 0.00 0.00 66 1008.3
20220123230008 32 207 0.0 0.9 0.00 0.00 0.00 64 1008.2
20220123224508 33 216 0.0 0.0 0.00 0.00 0.00 63 1008.1
20220123223011 33 218 0.0 1.7 0.00 0.00 0.00 62 1008.2
20220123221514 33 220 0.0 0.9 0.00 0.00 0.00 63 1008.4
20220123220003 33 236 0.0 0.0 0.00 0.00 0.00 61 1008.4
20220123214519 33 233 0.0 3.5 0.00 0.00 0.00 60 1008.2
20220123213002 34 241 0.9 8.7 0.00 0.00 0.00 60 1008.3
20220123211506 34 216 2.6 9.6 0.00 0.00 0.00 59 1008.3
20220123210001 34 200 0.0 7.8 0.00 0.00 0.00 60 1008.4
20220123204640 34 208 3.5 9.6 0.00 0.00 0.00 59 1008.7
20220123203118 35 201 0.0 7.8 0.00 0.00 0.00 59 1008.8
20220123201631 35 193 0.9 8.7 0.00 0.00 0.00 58 1008.9
20220123200125 36 199 2.6 13.0 0.00 0.00 0.00 57 1009.0
20220123194611 36 232 0.9 8.7 0.00 0.00 0.00 51 1009.1
20220123193335 37 221 2.6 9.6 0.00 0.00 0.00 52 1009.2
20220123191633 36 224 3.5 8.7 0.00 0.00 0.00 50 1009.5
20220123190131 37 227 0.9 7.0 0.00 0.00 0.00 52 1009.7
20220123184654 36 268 0.0 6.1 0.00 0.00 0.00 51 1009.8
20220123183158 36 229 0.0 6.1 0.00 0.00 0.00 52 1010.1
20220123181551 36 230 3.5 12.2 0.00 0.00 0.00 53 1010.4
20220123180056 36 255 7.0 11.3 0.00 0.00 0.00 52 1010.7
20220123174548 36 232 4.3 11.3 0.00 0.00 0.00 52 1010.8
20220123173043 36 220 0.9 7.0 0.00 0.00 0.00 54 1011.1
20220123171544 35 241 0.0 8.7 0.00 0.00 0.00 53 1011.5
20220123170053 35 235 7.8 13.9 0.00 0.00 0.00 54 1012.1
20220123164613 35 232 4.3 13.9 0.00 0.00 0.00 55 1012.5
20220123163110 34 230 1.7 11.3 0.00 0.00 0.00 56 1013.0
20220123161518 34 268 1.7 9.6 0.00 0.00 0.00 56 1013.3
20220123160016 33 255 0.0 12.2 0.00 0.00 0.00 56 1013.5
20220123154515 33 234 0.9 6.1 0.00 0.00 0.00 59 1013.7
20220123153025 32 276 3.5 13.9 0.00 0.00 0.00 58 1013.8
20220123151512 31 259 3.5 13.9 0.00 0.00 0.00 60 1014.1
20220123150008 31 251 0.9 9.6 0.00 0.00 0.00 65 1014.2
20220123144507 30 220 0.0 6.1 0.00 0.00 0.00 66 1014.2
20220123143216 29 237 1.7 7.0 0.00 0.00 0.00 69 1014.6
20220123141620 28 241 0.0 5.2 0.00 0.00 0.00 68 1014.6
20220123140219 28 248 0.0 8.7 0.00 0.00 0.00 67 1014.7
20220123134558 27 269 0.0 3.5 0.00 0.00 0.00 69 1015.1
20220123133114 25 255 0.0 3.5 0.00 0.00 0.00 73 1015.3
20220123131632 23 264 0.0 0.0 0.00 0.00 0.00 73 1015.4
20220123130209 21 280 0.0 0.9 0.00 0.00 0.00 72 1015.6
20220123124633 21 267 0.0 0.9 0.00 0.00 0.00 71 1015.7
20220123123113 21 274 0.0 0.0 0.00 0.00 0.00 72 1016.0
20220123121535 20 282 0.0 0.0 0.00 0.00 0.00 71 1016.0
20220123120034 20 282 0.0 0.0 0.00 0.00 0.00 71 1016.2
20220123114555 20 284 0.0 0.0 0.00 0.00 0.00 71 1016.3
20220123113107 20 285 0.0 0.0 0.00 0.00 0.00 70 1016.2
20220123111546 20 289 0.0 0.0 0.00 0.00 0.00 68 1016.3
20220123110032 20 291 0.0 0.0 0.00 0.00 0.00 68 1016.1
20220123104555 20 291 0.0 0.0 0.00 0.00 0.00 67 1016.1
20220123103101 20 291 0.0 3.5 0.00 0.00 0.00 68 1015.8